createdAt,value
2022-09-04T00:00:03.771Z,3.83
2022-09-04T00:02:55.412Z,3.85
2022-09-04T00:05:27.736Z,3.40
2022-09-04T00:08:20.643Z,3.33
2022-09-04T00:11:25.280Z,3.67
2022-09-04T00:13:58.411Z,3.97
2022-09-04T00:16:26.893Z,3.47
2022-09-04T00:19:13.968Z,3.60
2022-09-04T00:21:56.319Z,3.67
2022-09-04T00:24:26.789Z,4.40
2022-09-04T00:27:01.956Z,3.55
2022-09-04T00:29:48.647Z,3.38
2022-09-04T00:32:27.096Z,3.50
2022-09-04T00:35:31.377Z,4.00
2022-09-04T00:38:03.976Z,3.67
2022-09-04T00:40:35.848Z,4.05
2022-09-04T00:43:32.305Z,4.95
2022-09-04T00:46:22.578Z,4.57
2022-09-04T00:49:23.843Z,4.43
2022-09-04T00:52:11.408Z,4.30
2022-09-04T00:55:01.882Z,4.20
2022-09-04T00:57:59.441Z,4.38
2022-09-04T01:00:27.918Z,3.87
2022-09-04T01:03:03.825Z,4.00
2022-09-04T01:05:58.460Z,4.78
2022-09-04T01:09:01.961Z,4.45
2022-09-04T01:12:00.479Z,4.20
2022-09-04T01:14:55.896Z,4.47
2022-09-04T01:17:49.750Z,4.35
2022-09-04T01:20:45.053Z,3.70
2022-09-04T01:23:42.731Z,4.15
2022-09-04T01:26:32.771Z,4.60
2022-09-04T01:29:21.020Z,4.50
2022-09-04T01:31:55.404Z,4.82
2022-09-04T01:34:51.072Z,4.88
2022-09-04T01:37:30.641Z,4.78
2022-09-04T01:40:35.241Z,4.40
2022-09-04T01:43:11.707Z,5.43
2022-09-04T01:46:05.318Z,5.35
2022-09-04T01:48:43.679Z,4.32
2022-09-04T01:51:28.563Z,4.35
2022-09-04T01:54:32.766Z,4.25
2022-09-04T01:57:20.768Z,4.77
2022-09-04T02:00:11.894Z,4.75
2022-09-04T02:02:50.476Z,5.10
2022-09-04T02:05:38.818Z,3.97
2022-09-04T02:08:36.163Z,4.10
2022-09-04T02:11:18.481Z,4.50
2022-09-04T02:14:10.653Z,4.30
2022-09-04T02:17:01.421Z,4.50
2022-09-04T02:19:41.787Z,4.55
2022-09-04T02:22:15.193Z,4.22
2022-09-04T02:24:53.662Z,4.33
2022-09-04T02:27:35.404Z,4.88
2022-09-04T02:30:05.865Z,4.43
2022-09-04T02:32:42.752Z,4.65
2022-09-04T02:35:19.877Z,4.93
2022-09-04T02:38:11.765Z,4.53
2022-09-04T02:40:59.310Z,4.75
2022-09-04T02:43:46.415Z,5.18
2022-09-04T02:46:31.861Z,5.72
2022-09-04T02:49:09.539Z,5.40
2022-09-04T02:52:12.189Z,5.50
2022-09-04T02:55:16.255Z,5.38
2022-09-04T02:58:18.538Z,4.75
2022-09-04T03:01:16.499Z,6.20
2022-09-04T03:04:01.330Z,6.03
2022-09-04T03:06:49.707Z,5.83
2022-09-04T03:09:27.480Z,5.28
2022-09-04T03:12:00.753Z,5.32
2022-09-04T03:14:46.418Z,6.65
2022-09-04T03:17:23.295Z,6.13
2022-09-04T03:20:15.519Z,6.60
2022-09-04T03:22:50.120Z,6.40
2022-09-04T03:25:34.996Z,6.88
2022-09-04T03:28:02.006Z,5.00
2022-09-04T03:30:34.982Z,5.43
2022-09-04T03:33:16.068Z,5.60
2022-09-04T03:35:55.421Z,5.55
2022-09-04T03:38:54.929Z,5.60
2022-09-04T03:41:33.262Z,5.60
2022-09-04T03:44:20.860Z,5.07
2022-09-04T03:47:02.309Z,5.77
2022-09-04T03:49:59.369Z,5.63
2022-09-04T03:52:36.847Z,5.05
2022-09-04T03:55:26.790Z,5.47
2022-09-04T03:58:44.528Z,5.50
2022-09-04T04:01:39.032Z,6.30
2022-09-04T04:04:26.366Z,5.35
2022-09-04T04:07:08.836Z,4.88
2022-09-04T04:09:53.355Z,5.47
2022-09-04T04:12:49.848Z,5.63
2022-09-04T04:15:46.555Z,4.90
2022-09-04T04:18:25.614Z,5.22
2022-09-04T04:21:07.303Z,5.55
2022-09-04T04:23:56.594Z,6.15
2022-09-04T04:26:57.996Z,6.55
2022-09-04T04:29:41.999Z,6.17
2022-09-04T04:32:31.347Z,5.78
2022-09-04T04:35:16.017Z,5.22
2022-09-04T04:38:21.156Z,5.95
2022-09-04T04:40:50.783Z,5.28
2022-09-04T04:43:43.772Z,6.50
2022-09-04T04:46:23.159Z,5.70
2022-09-04T04:49:11.707Z,5.15
2022-09-04T04:51:50.336Z,5.68
2022-09-04T04:54:51.560Z,5.32
2022-09-04T04:57:30.387Z,5.47
2022-09-04T05:00:11.629Z,5.97
2022-09-04T05:02:45.666Z,6.15
2022-09-04T05:05:24.886Z,5.88
2022-09-04T05:08:02.883Z,5.35
2022-09-04T05:10:41.532Z,5.30
2022-09-04T05:13:16.275Z,6.65
2022-09-04T05:16:08.455Z,5.72
2022-09-04T05:19:17.884Z,6.00
2022-09-04T05:21:53.247Z,6.05
2022-09-04T05:24:29.343Z,5.70
2022-09-04T05:27:04.325Z,6.47
2022-09-04T05:29:47.536Z,5.55
2022-09-04T05:32:21.866Z,6.43
2022-09-04T05:34:51.835Z,5.93
2022-09-04T05:37:31.387Z,5.23
2022-09-04T05:40:17.030Z,5.22
2022-09-04T05:42:56.063Z,6.20
2022-09-04T05:45:34.219Z,6.43
2022-09-04T05:48:26.274Z,6.18
2022-09-04T05:51:25.937Z,6.40
2022-09-04T05:54:02.798Z,7.55
2022-09-04T05:56:44.389Z,6.20
2022-09-04T05:59:36.883Z,6.68
2022-09-04T06:02:30.239Z,6.30
2022-09-04T06:05:34.618Z,6.53
2022-09-04T06:08:11.701Z,6.03
2022-09-04T06:11:02.770Z,6.60
2022-09-04T06:13:58.345Z,6.03
2022-09-04T06:16:27.803Z,6.40
2022-09-04T06:19:03.262Z,5.70
2022-09-04T06:21:48.435Z,5.65
2022-09-04T06:24:42.251Z,7.15
2022-09-04T06:27:42.705Z,6.68
2022-09-04T06:30:13.724Z,7.22
2022-09-04T06:32:52.176Z,9.17
2022-09-04T06:35:27.781Z,10.40
2022-09-04T06:38:10.912Z,10.77
2022-09-04T06:40:46.633Z,9.60
2022-09-04T06:43:38.518Z,10.13
2022-09-04T06:46:12.888Z,9.57
2022-09-04T06:48:59.136Z,9.77
2022-09-04T06:51:44.233Z,9.98
2022-09-04T06:54:49.278Z,9.98
2022-09-04T06:58:01.569Z,9.70
2022-09-04T07:00:34.827Z,9.33
2022-09-04T07:03:09.749Z,10.10
2022-09-04T07:05:58.025Z,10.63
2022-09-04T07:08:54.478Z,9.80
2022-09-04T07:11:58.443Z,10.80
2022-09-04T07:14:45.046Z,10.10
2022-09-04T07:17:34.004Z,9.20
2022-09-04T07:20:43.087Z,10.85
2022-09-04T07:23:23.411Z,10.07
2022-09-04T07:26:07.731Z,10.25
2022-09-04T07:29:00.041Z,9.47
2022-09-04T07:31:45.591Z,9.90
2022-09-04T07:34:20.984Z,9.45
2022-09-04T07:37:01.454Z,9.38
2022-09-04T07:39:49.097Z,10.18
2022-09-04T07:42:31.913Z,8.63
2022-09-04T07:45:34.008Z,8.98
2022-09-04T07:48:15.633Z,9.68
2022-09-04T07:51:03.605Z,9.43
2022-09-04T07:53:51.509Z,9.27
2022-09-04T07:56:39.844Z,9.50
2022-09-04T07:59:34.228Z,9.40
2022-09-04T08:02:03.719Z,10.63
2022-09-04T08:04:38.315Z,9.18
2022-09-04T08:07:13.649Z,9.68
2022-09-04T08:10:27.679Z,9.23
2022-09-04T08:13:03.252Z,9.18
2022-09-04T08:15:43.348Z,10.23
2022-09-04T08:18:44.936Z,9.82
2022-09-04T08:21:31.265Z,10.55
2022-09-04T08:24:23.912Z,9.77
2022-09-04T08:27:10.989Z,9.70
2022-09-04T08:29:57.472Z,10.45
2022-09-04T08:32:54.784Z,9.65
2022-09-04T08:35:37.205Z,9.65
2022-09-04T08:38:40.538Z,10.03
2022-09-04T08:41:40.144Z,10.73
2022-09-04T08:44:37.519Z,10.32
2022-09-04T08:47:10.365Z,10.52
2022-09-04T08:49:58.641Z,10.73
2022-09-04T08:52:43.387Z,10.40
2022-09-04T08:55:31.143Z,9.88
2022-09-04T08:58:28.623Z,10.10
2022-09-04T09:01:10.266Z,9.60
2022-09-04T09:04:04.154Z,9.32
2022-09-04T09:06:58.416Z,9.63
2022-09-04T09:09:43.034Z,9.35
2022-09-04T09:12:41.220Z,9.93
2022-09-04T09:15:34.080Z,9.57
2022-09-04T09:18:17.749Z,9.38
2022-09-04T09:20:54.552Z,9.60
2022-09-04T09:23:29.678Z,9.75
2022-09-04T09:26:30.998Z,9.18
2022-09-04T09:29:18.230Z,9.05
2022-09-04T09:32:12.908Z,9.68
2022-09-04T09:35:12.145Z,9.43
2022-09-04T09:38:16.364Z,8.80
2022-09-04T09:40:48.621Z,10.68
2022-09-04T09:43:40.108Z,7.93
2022-09-04T09:46:21.835Z,7.82
2022-09-04T09:49:25.751Z,7.10
2022-09-04T09:52:16.887Z,6.75
2022-09-04T09:55:12.829Z,6.18
2022-09-04T09:58:20.701Z,5.55
2022-09-04T10:01:08.619Z,4.97
2022-09-04T10:04:00.281Z,7.23
2022-09-04T10:06:59.203Z,5.78
2022-09-04T10:10:03.011Z,6.40
2022-09-04T10:13:06.921Z,4.32
2022-09-04T10:16:16.340Z,4.78
2022-09-04T10:19:16.527Z,5.10
2022-09-04T10:22:20.261Z,4.72
2022-09-04T10:24:57.569Z,4.82
2022-09-04T10:28:01.416Z,5.38
2022-09-04T10:30:40.748Z,5.35
2022-09-04T10:33:26.397Z,3.90
2022-09-04T10:36:17.822Z,4.75
2022-09-04T10:39:19.082Z,4.03
2022-09-04T10:42:16.464Z,5.15
2022-09-04T10:45:11.776Z,4.80
2022-09-04T10:48:14.968Z,4.17
2022-09-04T10:51:05.883Z,4.55
2022-09-04T10:53:57.037Z,2.90
2022-09-04T10:57:04.694Z,3.95
2022-09-04T10:59:48.276Z,4.65
2022-09-04T11:02:33.227Z,3.80
2022-09-04T11:05:07.129Z,4.25
2022-09-04T11:07:58.364Z,3.28
2022-09-04T11:10:33.716Z,3.20
2022-09-04T11:13:29.146Z,3.05
2022-09-04T11:16:14.790Z,2.20
2022-09-04T11:19:10.337Z,2.40
2022-09-04T11:21:39.971Z,2.45
2022-09-04T11:24:47.214Z,2.65
2022-09-04T11:27:53.908Z,2.38
2022-09-04T11:30:48.402Z,2.40
2022-09-04T11:33:53.428Z,3.20
2022-09-04T11:36:48.244Z,3.10
2022-09-04T11:39:36.142Z,3.50
2022-09-04T11:42:08.520Z,2.78
2022-09-04T11:44:58.160Z,3.13
2022-09-04T11:47:42.802Z,3.70
2022-09-04T11:50:33.052Z,3.40
2022-09-04T11:53:11.459Z,3.72
2022-09-04T11:55:59.881Z,3.45
2022-09-04T11:58:57.177Z,3.40
2022-09-04T12:01:26.927Z,3.22
2022-09-04T12:04:23.395Z,3.25
2022-09-04T12:07:13.396Z,2.85
2022-09-04T12:10:01.058Z,2.92
2022-09-04T12:12:42.131Z,1.70
2022-09-04T12:15:35.501Z,1.88
2022-09-04T12:18:41.454Z,2.53
2022-09-04T12:21:43.797Z,1.73
2022-09-04T12:24:36.680Z,1.77
2022-09-04T12:27:27.224Z,1.83
2022-09-04T12:30:20.212Z,1.90
2022-09-04T12:33:17.793Z,2.00
2022-09-04T12:36:21.783Z,1.98
2022-09-04T12:39:07.028Z,1.92
2022-09-04T12:41:54.902Z,2.10
2022-09-04T12:44:52.522Z,1.60
2022-09-04T12:47:41.624Z,1.63
2022-09-04T12:50:17.955Z,1.80
2022-09-04T12:53:08.550Z,1.73
2022-09-04T12:55:48.245Z,1.70
2022-09-04T12:58:33.769Z,1.73
2022-09-04T13:01:32.615Z,1.85
2022-09-04T13:04:21.599Z,1.35
2022-09-04T13:07:24.777Z,1.60
2022-09-04T13:10:16.603Z,1.63
2022-09-04T13:13:08.319Z,1.42
2022-09-04T13:15:48.701Z,1.30
2022-09-04T13:18:44.723Z,1.30
2022-09-04T13:21:25.092Z,1.30
2022-09-04T13:24:19.740Z,1.40
2022-09-04T13:27:36.841Z,1.17
2022-09-04T13:30:10.711Z,1.33
2022-09-04T13:32:49.387Z,1.20
2022-09-04T13:35:38.830Z,1.27
2022-09-04T13:38:08.375Z,1.50
2022-09-04T13:41:04.830Z,1.77
2022-09-04T13:43:53.170Z,1.27
2022-09-04T13:46:30.192Z,1.23
2022-09-04T13:49:02.609Z,1.27
2022-09-04T13:51:53.916Z,1.33
2022-09-04T13:54:34.107Z,1.20
2022-09-04T13:57:16.231Z,1.33
2022-09-04T13:59:46.378Z,1.10
2022-09-04T14:02:14.784Z,1.27
2022-09-04T14:04:46.359Z,1.30
2022-09-04T14:07:24.736Z,1.10
2022-09-04T14:09:54.183Z,1.35
2022-09-04T14:12:53.779Z,1.30
2022-09-04T14:15:48.082Z,1.48
2022-09-04T14:18:45.268Z,1.33
2022-09-04T14:21:37.030Z,1.40
2022-09-04T14:24:42.201Z,1.35
2022-09-04T14:27:30.435Z,1.27
2022-09-04T14:30:07.063Z,1.05
2022-09-04T14:33:06.254Z,1.27
2022-09-04T14:35:50.775Z,1.10
2022-09-04T14:38:36.610Z,1.55
2022-09-04T14:41:35.897Z,1.15
2022-09-04T14:44:25.151Z,1.45
2022-09-04T14:47:25.944Z,1.00
2022-09-04T14:50:01.109Z,1.08
2022-09-04T14:52:37.898Z,1.52
2022-09-04T14:55:12.937Z,1.17
2022-09-04T14:57:50.528Z,1.75
2022-09-04T15:00:19.801Z,1.50
2022-09-04T15:03:15.625Z,1.27
2022-09-04T15:05:55.797Z,1.30
2022-09-04T15:08:34.695Z,1.20
2022-09-04T15:11:05.468Z,1.38
2022-09-04T15:13:52.299Z,1.47
2022-09-04T15:16:40.391Z,1.42
2022-09-04T15:19:28.551Z,1.20
2022-09-04T15:22:11.054Z,1.25
2022-09-04T15:25:04.389Z,1.48
2022-09-04T15:27:55.189Z,1.40
2022-09-04T15:30:24.761Z,1.42
2022-09-04T15:33:08.012Z,1.48
2022-09-04T15:35:35.973Z,1.52
2022-09-04T15:38:17.315Z,1.30
2022-09-04T15:41:16.170Z,1.37
2022-09-04T15:43:48.211Z,1.33
2022-09-04T15:46:33.142Z,1.40
2022-09-04T15:49:19.381Z,1.40
2022-09-04T15:51:46.164Z,1.20
2022-09-04T15:54:12.876Z,1.47
2022-09-04T15:56:45.931Z,1.35
2022-09-04T15:59:31.917Z,3.45
2022-09-04T16:02:11.475Z,3.30
2022-09-04T16:04:50.319Z,7.53
2022-09-04T16:07:32.905Z,7.53
2022-09-04T16:10:08.968Z,4.90
2022-09-04T16:12:43.893Z,4.63
2022-09-04T16:15:22.851Z,2.80
2022-09-04T16:17:54.424Z,1.33
2022-09-04T16:20:53.249Z,1.30
2022-09-04T16:23:29.732Z,2.53
2022-09-04T16:25:58.338Z,3.88
2022-09-04T16:28:32.745Z,4.68
2022-09-04T16:31:01.864Z,4.35
2022-09-04T16:33:54.751Z,10.93
2022-09-04T16:36:45.799Z,2.42
2022-09-04T16:39:20.190Z,1.58
2022-09-04T16:41:52.774Z,1.20
2022-09-04T16:44:26.534Z,1.08
2022-09-04T16:47:38.467Z,0.80
2022-09-04T16:50:13.457Z,0.60
2022-09-04T16:52:49.149Z,0.60
2022-09-04T16:55:32.277Z,0.80
2022-09-04T16:58:07.442Z,0.50
2022-09-04T17:00:48.918Z,0.80
2022-09-04T17:03:22.815Z,0.70
2022-09-04T17:06:06.234Z,0.75
2022-09-04T17:08:39.754Z,0.70
2022-09-04T17:11:55.617Z,0.60
2022-09-04T17:14:35.109Z,0.60
2022-09-04T17:17:29.808Z,1.30
2022-09-04T17:20:09.352Z,1.90
2022-09-04T17:28:54.109Z,0.80
2022-09-04T17:29:16.011Z,0.50
2022-09-04T17:29:16.025Z,0.68
2022-09-04T17:31:46.652Z,0.50
2022-09-04T17:40:37.385Z,0.73
2022-09-04T17:40:54.116Z,0.50
2022-09-04T17:41:36.671Z,0.60
2022-09-04T17:44:02.023Z,5.77
2022-09-04T17:46:51.266Z,3.85
2022-09-04T17:49:21.882Z,1.63
2022-09-04T17:51:59.576Z,0.68
2022-09-04T17:54:29.880Z,0.50
2022-09-04T17:57:03.176Z,0.60
2022-09-04T17:59:34.793Z,0.60
2022-09-04T18:02:26.935Z,0.68
2022-09-04T18:04:56.352Z,0.57
2022-09-04T18:08:09.028Z,2.95
2022-09-04T18:10:34.176Z,0.80
2022-09-04T18:13:37.579Z,0.65
2022-09-04T18:16:20.988Z,0.50
2022-09-04T18:19:00.797Z,0.52
2022-09-04T18:21:43.384Z,0.70
2022-09-04T18:24:57.396Z,0.50
2022-09-04T18:27:32.128Z,0.43
2022-09-04T18:33:03.595Z,0.55
2022-09-04T18:37:06.671Z,0.80
2022-09-04T18:37:22.071Z,0.60
2022-09-04T18:39:18.972Z,0.70
2022-09-04T18:46:06.541Z,0.43
2022-09-04T18:50:29.725Z,0.50
2022-09-04T18:50:48.580Z,0.50
2022-09-04T18:53:43.454Z,0.60
2022-09-04T18:56:22.473Z,0.82
2022-09-04T18:59:21.165Z,0.50
2022-09-04T19:01:58.057Z,0.73
2022-09-04T19:04:41.888Z,0.80
2022-09-04T19:07:28.788Z,0.80
2022-09-04T19:10:08.789Z,0.63
2022-09-04T19:12:47.232Z,0.57
2022-09-04T19:15:45.491Z,0.60
2022-09-04T19:18:22.024Z,0.70
2022-09-04T19:20:52.079Z,0.43
2022-09-04T19:23:32.420Z,0.70
2022-09-04T19:26:07.100Z,0.60
2022-09-04T19:29:01.881Z,0.60
2022-09-04T19:31:43.778Z,0.60
2022-09-04T19:34:35.398Z,0.67
2022-09-04T19:37:35.997Z,0.70
2022-09-04T19:45:57.466Z,0.50
2022-09-04T19:46:13.318Z,0.65
2022-09-04T19:46:40.143Z,0.90
2022-09-04T19:50:12.976Z,0.70
2022-09-04T19:53:30.393Z,0.63
2022-09-04T19:55:24.657Z,0.43
2022-09-04T19:58:18.519Z,0.88
2022-09-04T20:00:49.005Z,0.60
2022-09-04T20:03:24.980Z,0.60
2022-09-04T20:06:20.978Z,0.70
2022-09-04T20:09:13.412Z,0.50
2022-09-04T20:11:46.243Z,0.55
2022-09-04T20:14:23.265Z,0.65
2022-09-04T20:17:17.207Z,0.73
2022-09-04T20:19:52.748Z,0.50
2022-09-04T20:22:40.149Z,0.70
2022-09-04T20:25:18.781Z,0.80
2022-09-04T20:27:51.463Z,0.70
2022-09-04T20:30:22.343Z,0.90
2022-09-04T20:33:06.827Z,0.68
2022-09-04T20:35:59.734Z,0.77
2022-09-04T20:38:41.953Z,0.90
2022-09-04T20:41:19.337Z,0.90
2022-09-04T20:44:03.420Z,0.90
2022-09-04T20:52:42.940Z,0.70
2022-09-04T20:52:54.739Z,1.33
2022-09-04T20:53:22.303Z,1.00
2022-09-04T20:56:04.883Z,0.70
2022-09-04T21:03:09.517Z,1.10
2022-09-04T21:03:12.996Z,0.80
2022-09-04T21:04:50.028Z,1.00
2022-09-04T21:07:49.358Z,0.85
2022-09-04T21:11:39.383Z,1.00
2022-09-04T21:14:44.595Z,1.10
2022-09-04T21:17:36.377Z,0.80
2022-09-04T21:20:33.042Z,0.90
2022-09-04T21:23:39.160Z,0.73
2022-09-04T21:26:17.797Z,1.20
2022-09-04T21:29:06.180Z,0.90
2022-09-04T21:31:58.452Z,1.00
2022-09-04T21:34:54.026Z,0.82
2022-09-04T21:37:47.309Z,0.88
2022-09-04T21:40:51.054Z,0.77
2022-09-04T21:43:47.680Z,0.80
2022-09-04T21:46:41.958Z,0.80
2022-09-04T21:49:33.203Z,0.98
2022-09-04T21:52:37.756Z,0.90
2022-09-04T21:59:32.716Z,0.95
2022-09-04T22:02:29.075Z,1.43
2022-09-04T22:02:39.911Z,0.88
2022-09-04T22:04:28.784Z,0.95
2022-09-04T22:09:15.799Z,2.03
2022-09-04T22:13:29.849Z,0.98
2022-09-04T22:13:48.335Z,0.80
2022-09-04T22:16:20.358Z,0.90
2022-09-04T22:19:04.596Z,0.85
2022-09-04T22:22:31.059Z,0.90
2022-09-04T22:25:35.808Z,0.80
2022-09-04T22:28:43.510Z,0.80
2022-09-04T22:31:29.703Z,0.90
2022-09-04T22:34:27.522Z,0.90
2022-09-04T22:37:16.321Z,1.00
2022-09-04T22:40:13.221Z,1.00
2022-09-04T22:42:57.104Z,0.80
2022-09-04T22:45:29.634Z,0.82
2022-09-04T22:48:35.511Z,1.00
2022-09-04T22:51:23.182Z,1.00
2022-09-04T22:54:11.114Z,0.70
2022-09-04T22:57:02.879Z,0.77
2022-09-04T22:59:39.018Z,1.02
2022-09-04T23:03:04.080Z,1.00
2022-09-04T23:05:49.663Z,0.90
2022-09-04T23:13:43.799Z,0.95
2022-09-04T23:14:02.500Z,0.90
2022-09-04T23:14:52.088Z,0.80
2022-09-04T23:17:42.121Z,0.85
2022-09-04T23:20:45.545Z,1.08
2022-09-04T23:23:53.496Z,0.70
2022-09-04T23:26:58.723Z,1.20
2022-09-04T23:30:02.434Z,1.00
2022-09-04T23:32:58.954Z,1.67
2022-09-04T23:35:41.250Z,1.00
2022-09-04T23:38:34.556Z,0.88
2022-09-04T23:41:19.394Z,1.00
2022-09-04T23:44:38.654Z,0.90
2022-09-04T23:47:48.611Z,0.98
2022-09-04T23:50:34.677Z,0.82
2022-09-04T23:53:12.733Z,1.15
2022-09-04T23:56:05.034Z,1.10
2022-09-04T23:59:17.825Z,1.10
